Terminal Aerodrome Forecast
Issued by NWS

Home | Current Version | Previous Version | Text Only | Print | Product List | Glossary On
Versions: 1 2 3 4 5 6 7 8 9 10 11 12 13 14 15 16 17 18 19 20 21 22 23 24 25 26 27 28 29 30 31 32
000
FTUS41 KBOX 271124
TAFACK
TAF
KACK 271124Z 2712/2812 20014KT 3SM -RA OVC015
     FM271500 22016KT 5SM -RA OVC025
     FM271900 23012KT 6SM BR VCSH OVC035
     FM272100 24010KT P6SM VCSH OVC050
     FM280300 VRB03KT 3SM BR VCSH OVC015
     FM281100 06013KT 2SM BR VCSH OVC008=

USA.gov is the U.S. government's official web portal to all federal, state and local government web resources and services.